Strona główna
METAR-TAF:

METAR-TAF

Lotnisko :

Delaware, Ohio, Stany Zjednoczone

Szerokość geograficzna: 40-16-47N, Długość geograficzna: 83-06-53W, wysokość: 288 m

Aktualna obserwacja pogody

Raport powstał 13 minut temu, godzina 19:15 UTC
Wiatr 5 kt od zachód
Temperatura 32°C
Wilgotność 56%
Ciśnienie 1013 hPa
Widzialność: 16.1 km
Rozproszone chmury na wysokości 4800 ft
Przerywane chmury na wysokości 5500 ft
Zachmurzenie całkowite na wysokości 8500 ft

METAR: KDLZ 211915Z AUTO 27005KT 10SM SCT048 BKN055 OVC085 32/22 A2992 RMK AO2

czas: 15:28 (19:28 UTC)


TAF: brakujący

Obserwacja i prognoza pogody dla ponad 4000 lotnisk (raport METAR i TAF).

Dostępne stacje oznaczono żółtymi i czerwonymi punktami na mapie.

Najedź kursorem aby zobaczyć nazwę stacji.

Kliknij aby zobaczyć obserwacje i prognozy pogody.

Aby zmienić mapę: kliknij na zielony przycisk z czarnym krzyżykiem, aby powiększyć; na zielony przycisk z myślnikiem, aby pomniejszyć; na zielone strzałki, aby przejść do map sąsiednich.


METAR-TAF: